Time;durP1;ratioP1;P1;durP2;ratioP2;P2;SDS_P1;SDS_P2;PMS_P1;PMS_P2;Temp;Humidity;BMP_temperature;BMP_pressure;BME280_temperature;BME280_humidity;BME280_pressure;Samples;Min_cycle;Max_cycle;Signal;HPM_P1;HPM_P2
2022/05/07 00:02:00;;;;;;;2.40;2.30;;;10.70;99.90;;;;;;6088955;23;20037;-82
2022/05/07 00:04:28;;;;;;;3.35;3.05;;;10.70;99.90;;;;;;6095772;23;20354;-82
2022/05/07 00:06:56;;;;;;;3.55;3.15;;;10.60;99.90;;;;;;6073572;23;20020;-82
2022/05/07 00:09:24;;;;;;;3.05;2.47;;;10.60;99.90;;;;;;6091895;23;20022;-82
2022/05/07 00:11:51;;;;;;;3.70;3.35;;;10.60;99.90;;;;;;6072190;23;20022;-82
2022/05/07 00:14:19;;;;;;;10.77;3.63;;;10.60;99.90;;;;;;6064841;23;20021;-82
2022/05/07 00:19:34;;;;;;;3.40;2.50;;;10.50;99.90;;;;;;6100037;23;20434;-82
2022/05/07 00:22:02;;;;;;;3.03;2.72;;;10.50;99.90;;;;;;6088427;23;20041;-82
2022/05/07 00:24:30;;;;;;;4.00;3.67;;;10.50;99.90;;;;;;6095807;23;20026;-82
2022/05/07 00:26:58;;;;;;;3.83;3.17;;;10.50;99.90;;;;;;6074317;23;20502;-82
2022/05/07 00:29:25;;;;;;;7.18;4.57;;;10.60;99.90;;;;;;6065443;23;20450;-82
2022/05/07 00:31:53;;;;;;;3.80;3.50;;;10.60;99.90;;;;;;6097526;23;20326;-81
2022/05/07 00:34:21;;;;;;;4.55;4.15;;;10.60;99.90;;;;;;6098128;23;20014;-82
2022/05/07 00:36:49;;;;;;;3.00;2.80;;;10.60;99.90;;;;;;6093175;23;20027;-82
2022/05/07 00:39:19;;;;;;;3.67;3.33;;;10.60;99.90;;;;;;6040288;23;20030;-82
2022/05/07 00:41:52;;;;;;;3.72;2.50;;;10.60;99.90;;;;;;6088962;23;20042;-82
2022/05/07 00:44:22;;;;;;;5.25;4.68;;;10.60;99.90;;;;;;6096117;23;20030;-82
2022/05/07 00:46:50;;;;;;;5.18;4.22;;;10.60;99.90;;;;;;6099537;23;20022;-82
2022/05/07 00:49:19;;;;;;;5.47;3.78;;;10.60;99.90;;;;;;6092103;23;20034;-82
2022/05/07 00:51:47;;;;;;;4.10;3.70;;;10.50;99.90;;;;;;6063484;23;20022;-82
2022/05/07 00:54:16;;;;;;;5.28;4.03;;;10.50;99.90;;;;;;6073715;23;20580;-82
2022/05/07 00:56:44;;;;;;;6.22;4.88;;;10.60;99.90;;;;;;6063701;23;20026;-82
2022/05/07 00:59:12;;;;;;;17.10;7.13;;;10.60;99.90;;;;;;6073723;23;20030;-82
2022/05/07 01:01:40;;;;;;;13.13;8.85;;;10.60;99.90;;;;;;6041393;23;20027;-83
2022/05/07 01:04:08;;;;;;;8.98;6.82;;;10.70;99.90;;;;;;6096838;23;20030;-83
2022/05/07 01:06:36;;;;;;;9.27;6.85;;;10.70;99.90;;;;;;6100139;23;20029;-83
2022/05/07 01:09:08;;;;;;;15.13;8.70;;;10.70;99.90;;;;;;6094335;23;20555;-83
2022/05/07 01:11:40;;;;;;;6.97;6.18;;;10.70;99.90;;;;;;6099192;23;20319;-82
2022/05/07 01:14:07;;;;;;;8.77;7.70;;;10.80;99.90;;;;;;6076227;23;20014;-83
2022/05/07 01:16:35;;;;;;;8.77;6.15;;;10.70;99.90;;;;;;6018183;23;20030;-83
2022/05/07 01:19:03;;;;;;;8.80;7.30;;;10.70;99.90;;;;;;6075407;23;20018;-83
2022/05/07 01:21:31;;;;;;;10.30;7.82;;;10.70;99.90;;;;;;6066350;23;20026;-83
2022/05/07 01:24:00;;;;;;;7.85;6.07;;;10.70;99.90;;;;;;6049477;23;20038;-84
2022/05/07 01:26:32;;;;;;;8.20;7.05;;;10.60;99.90;;;;;;6018960;23;20030;-83
2022/05/07 01:29:03;;;;;;;7.65;6.05;;;10.70;99.90;;;;;;6080413;23;20026;-83
2022/05/07 01:31:34;;;;;;;12.15;8.02;;;10.70;99.90;;;;;;6098578;23;20014;-83
2022/05/07 01:34:02;;;;;;;8.73;6.93;;;10.70;99.90;;;;;;6065481;23;20025;-84
2022/05/07 01:36:34;;;;;;;9.80;7.93;;;10.70;99.90;;;;;;6064211;23;20485;-84
2022/05/07 01:39:07;;;;;;;8.10;5.85;;;10.70;99.90;;;;;;6074766;23;20048;-84
2022/05/07 01:41:35;;;;;;;8.23;6.78;;;10.70;99.90;;;;;;6066669;23;20030;-84
2022/05/07 01:44:05;;;;;;;7.38;6.45;;;10.70;99.90;;;;;;6041463;23;20355;-84
2022/05/07 01:49:24;;;;;;;9.38;6.90;;;10.60;99.90;;;;;;6064619;23;20339;-85
2022/05/07 01:51:52;;;;;;;8.38;7.00;;;10.60;99.90;;;;;;6040642;23;20026;-84
2022/05/07 01:54:21;;;;;;;10.02;8.27;;;10.60;99.90;;;;;;6099273;23;20014;-84
2022/05/07 01:56:50;;;;;;;8.82;6.97;;;10.60;99.90;;;;;;6045274;23;20023;-84
2022/05/07 01:59:17;;;;;;;10.65;7.68;;;10.60;99.90;;;;;;6065394;23;20018;-84
2022/05/07 02:01:46;;;;;;;12.63;7.03;;;10.60;99.90;;;;;;6017356;23;20651;-84
2022/05/07 02:04:13;;;;;;;10.07;7.10;;;10.60;99.90;;;;;;6064568;23;20022;-84
2022/05/07 02:06:42;;;;;;;7.40;6.60;;;10.60;99.90;;;;;;6040438;23;20018;-85
2022/05/07 02:13:37;;;;;;;8.70;7.50;;;10.60;99.90;;;;;;6036029;23;20033;-84
2022/05/07 02:16:18;;;;;;;8.10;7.18;;;10.70;99.90;;;;;;6071981;23;20029;-85
2022/05/07 02:18:57;;;;;;;8.40;6.55;;;10.70;99.90;;;;;;6040714;23;20025;-84
2022/05/07 02:21:31;;;;;;;11.32;8.80;;;10.70;99.90;;;;;;6040396;23;20027;-85
2022/05/07 02:24:07;;;;;;;8.13;6.97;;;10.70;99.90;;;;;;6063822;23;20026;-84
2022/05/07 02:26:37;;;;;;;10.93;9.63;;;10.70;99.90;;;;;;6075253;23;20613;-84
2022/05/07 02:29:09;;;;;;;12.18;9.55;;;10.70;99.90;;;;;;6058628;23;20356;-84
2022/05/07 02:32:03;;;;;;;;;;;10.70;99.90;;;;;;6012155;23;20023;-84
2022/05/07 02:34:37;;;;;;;16.20;10.93;;;10.70;99.90;;;;;;6059536;23;19928;-85
2022/05/07 02:37:15;;;;;;;12.70;9.02;;;10.60;99.90;;;;;;6058622;23;20023;-84
2022/05/07 02:39:54;;;;;;;9.77;7.90;;;10.60;99.90;;;;;;6013700;23;20030;-85
2022/05/07 02:42:41;;;;;;;15.57;9.70;;;10.60;99.90;;;;;;6013182;23;20027;-84
2022/05/07 02:45:37;;;;;;;13.32;10.48;;;10.60;99.90;;;;;;6012915;23;20035;-84
2022/05/07 02:49:10;;;;;;;12.38;9.93;;;10.60;99.90;;;;;;6058231;23;20035;-84
2022/05/07 02:52:45;;;;;;;15.05;11.10;;;10.60;99.90;;;;;;6049493;23;20023;-85
2022/05/07 02:56:15;;;;;;;21.08;11.00;;;10.60;99.90;;;;;;6028194;23;20026;-85
2022/05/07 02:59:14;;;;;;;21.50;13.57;;;10.60;99.90;;;;;;6017567;23;20030;-84
2022/05/07 03:01:42;;;;;;;14.38;11.52;;;10.60;99.90;;;;;;6035412;23;20035;-84
2022/05/07 03:04:10;;;;;;;13.98;11.55;;;10.60;99.90;;;;;;6011719;23;20023;-85
2022/05/07 03:06:38;;;;;;;17.65;14.70;;;10.70;99.90;;;;;;6093101;23;20019;-84
2022/05/07 03:09:28;;;;;;;17.67;12.02;;;10.70;99.90;;;;;;6058443;23;20043;-87
2022/05/07 03:12:00;;;;;;;14.15;10.77;;;10.70;99.90;;;;;;6012700;23;20029;-85
2022/05/07 03:14:28;;;;;;;16.70;11.82;;;10.70;99.90;;;;;;6069509;23;20018;-86
2022/05/07 03:16:56;;;;;;;16.15;13.40;;;10.70;99.90;;;;;;6063386;23;20530;-87
2022/05/07 03:19:24;;;;;;;18.30;14.35;;;10.70;99.90;;;;;;6070773;23;20023;-87
2022/05/07 03:21:53;;;;;;;16.73;12.82;;;10.70;99.90;;;;;;6058741;23;20022;-87
2022/05/07 03:24:28;;;;;;;20.60;15.40;;;10.70;99.90;;;;;;6036469;23;20027;-88
2022/05/07 03:27:00;;;;;;;20.00;14.13;;;10.70;99.90;;;;;;6013495;23;20384;-88
2022/05/07 03:29:28;;;;;;;19.45;12.65;;;10.60;99.90;;;;;;6060847;23;20042;-88
2022/05/07 03:32:04;;;;;;;21.67;11.88;;;10.60;99.90;;;;;;6066718;23;20030;-88
2022/05/07 03:34:32;;;;;;;17.00;11.13;;;10.70;99.90;;;;;;6012624;23;20023;-88
2022/05/07 03:37:01;;;;;;;15.55;11.88;;;10.60;99.90;;;;;;6086421;23;20066;-88
2022/05/07 03:39:30;;;;;;;15.98;12.07;;;10.60;99.90;;;;;;6045556;23;20022;-87
2022/05/07 03:41:58;;;;;;;13.85;11.48;;;10.60;99.90;;;;;;6059476;23;20439;-88
2022/05/07 03:44:26;;;;;;;17.58;12.55;;;10.60;99.90;;;;;;6065839;23;20031;-88
2022/05/07 03:46:55;;;;;;;13.95;11.27;;;10.60;99.90;;;;;;6069357;23;20327;-88
2022/05/07 03:49:23;;;;;;;15.23;12.27;;;10.60;99.90;;;;;;6061542;23;20027;-91
2022/05/07 03:54:39;;;;;;;17.17;14.32;;;10.60;99.90;;;;;;6060809;23;20038;-90
2022/05/07 03:57:09;;;;;;;19.08;12.95;;;10.60;99.90;;;;;;6061900;23;20026;-91
2022/05/07 03:59:37;;;;;;;17.33;14.02;;;10.60;99.90;;;;;;6059330;23;20030;-91
2022/05/07 04:02:05;;;;;;;16.30;12.93;;;10.60;99.90;;;;;;6038756;23;20530;-91
2022/05/07 04:04:44;;;;;;;18.42;13.00;;;10.60;99.90;;;;;;6065249;23;20038;-91
2022/05/07 04:07:15;;;;;;;15.00;11.70;;;10.60;99.90;;;;;;6071755;23;20018;-91
2022/05/07 04:09:54;;;;;;;15.88;12.25;;;10.60;99.90;;;;;;6062236;23;20037;-91
2022/05/07 04:12:25;;;;;;;18.35;12.65;;;10.60;99.90;;;;;;6091210;23;20031;-91
2022/05/07 04:14:57;;;;;;;16.02;12.25;;;10.70;99.90;;;;;;6039849;23;20045;-91
2022/05/07 04:17:28;;;;;;;17.65;12.13;;;10.60;99.90;;;;;;6016183;23;20034;-91
2022/05/07 04:19:59;;;;;;;15.43;10.88;;;10.70;99.90;;;;;;6017145;23;20448;-91
2022/05/07 04:22:34;;;;;;;15.18;11.15;;;10.70;99.90;;;;;;6048341;23;20033;-90
2022/05/07 04:25:06;;;;;;;12.43;10.50;;;10.70;99.90;;;;;;6037124;23;20030;-92
2022/05/07 04:27:40;;;;;;;14.85;11.90;;;10.70;99.90;;;;;;6037781;23;20341;-91
2022/05/07 04:30:09;;;;;;;14.00;11.70;;;10.70;99.90;;;;;;6018607;23;20027;-91
2022/05/07 04:32:38;;;;;;;12.98;10.30;;;10.70;99.90;;;;;;6017843;23;20041;-90
2022/05/07 04:35:08;;;;;;;12.55;9.98;;;10.60;99.90;;;;;;6017786;23;20027;-90
2022/05/07 04:37:39;;;;;;;11.45;8.52;;;10.70;99.90;;;;;;6040207;23;20026;-90
2022/05/07 04:40:09;;;;;;;13.70;10.48;;;10.70;99.90;;;;;;6074050;23;20023;-92
2022/05/07 04:42:41;;;;;;;12.02;9.20;;;10.70;99.90;;;;;;6022066;23;20050;-91
2022/05/07 04:45:10;;;;;;;12.25;9.68;;;10.70;99.90;;;;;;6020176;23;20034;-90
2022/05/07 04:47:49;;;;;;;10.38;8.25;;;10.70;99.90;;;;;;6054656;23;20552;-90
2022/05/07 04:50:25;;;;;;;11.40;9.00;;;10.70;99.90;;;;;;6022263;23;20023;-91
2022/05/07 04:53:05;;;;;;;14.55;10.15;;;10.70;99.90;;;;;;6051315;23;20033;-91
2022/05/07 04:55:33;;;;;;;11.68;8.43;;;10.70;99.90;;;;;;6053877;23;20010;-91
2022/05/07 04:58:02;;;;;;;11.10;9.80;;;10.70;99.90;;;;;;6042832;23;20038;-90
2022/05/07 05:00:34;;;;;;;11.35;9.68;;;10.70;99.90;;;;;;6020077;23;20182;-91
2022/05/07 05:03:13;;;;;;;9.77;7.25;;;10.70;99.90;;;;;;6055790;23;20735;-91
2022/05/07 05:06:15;;;;;;;10.05;6.50;;;10.70;99.90;;;;;;6031750;23;20038;-88
2022/05/07 05:09:12;;;;;;;8.25;7.45;;;10.70;99.90;;;;;;6044789;23;20026;-90
2022/05/07 05:12:13;;;;;;;9.93;8.93;;;10.70;99.90;;;;;;6047266;23;20022;-91
2022/05/07 05:15:04;;;;;;;9.90;7.95;;;10.70;99.90;;;;;;6055916;23;20019;-89
2022/05/07 05:17:53;;;;;;;9.07;8.18;;;10.80;99.90;;;;;;6055560;23;20035;-92
2022/05/07 05:20:22;;;;;;;8.98;6.88;;;10.80;99.90;;;;;;6073276;23;20037;-91
2022/05/07 05:23:16;;;;;;;6.90;6.20;;;10.70;99.90;;;;;;6093996;23;20026;-90
2022/05/07 05:25:54;;;;;;;7.78;6.60;;;10.80;99.90;;;;;;6067500;23;20049;-90
2022/05/07 05:28:37;;;;;;;7.80;7.10;;;10.80;99.90;;;;;;6047603;23;20459;-85
2022/05/07 05:31:28;;;;;;;9.32;7.70;;;10.90;99.90;;;;;;6040851;23;20450;-85
2022/05/07 05:34:08;;;;;;;8.98;7.80;;;10.90;99.90;;;;;;6063862;23;20037;-85
2022/05/07 05:37:09;;;;;;;8.07;6.40;;;10.90;99.90;;;;;;6056896;23;20037;-89
2022/05/07 05:39:46;;;;;;;9.05;7.70;;;10.90;99.90;;;;;;6012733;23;20034;-91
2022/05/07 05:42:19;;;;;;;7.78;7.00;;;10.90;99.90;;;;;;6012194;23;20047;-91
2022/05/07 05:45:09;;;;;;;8.90;7.80;;;10.90;99.90;;;;;;6035041;23;20035;-92
2022/05/07 05:47:46;;;;;;;7.30;6.57;;;11.00;99.90;;;;;;6011225;23;20195;-92
2022/05/07 05:50:19;;;;;;;7.40;6.45;;;11.00;99.90;;;;;;6011570;23;20030;-92
2022/05/07 05:53:10;;;;;;;10.60;7.65;;;11.00;99.90;;;;;;5959486;23;20031;-93
2022/05/07 05:55:46;;;;;;;8.57;7.45;;;11.10;99.90;;;;;;5954618;23;20035;-85
2022/05/07 05:59:31;;;;;;;7.78;6.53;;;11.10;99.90;;;;;;5981719;23;20035;-92
2022/05/07 06:02:29;;;;;;;8.73;7.82;;;11.10;99.90;;;;;;5961783;23;20160;-86
2022/05/07 06:05:31;;;;;;;9.57;8.00;;;11.10;99.90;;;;;;5984054;23;20027;-86
2022/05/07 06:08:23;;;;;;;10.02;8.43;;;11.10;99.90;;;;;;5931038;23;20835;-86
2022/05/07 06:11:14;;;;;;;10.23;8.88;;;11.10;99.90;;;;;;6011208;23;20100;-86
2022/05/07 06:14:06;;;;;;;9.18;7.65;;;11.10;99.90;;;;;;5962612;23;20024;-92
2022/05/07 06:16:55;;;;;;;16.90;9.55;;;11.10;99.90;;;;;;5975612;23;20034;-94
2022/05/07 06:20:02;;;;;;;;;;;11.10;99.90;;;;;;5960520;23;20024;-93
2022/05/07 06:23:31;;;;;;;8.82;7.32;;;11.10;99.90;;;;;;6011090;23;19929;-93
2022/05/07 06:29:37;;;;;;;9.68;8.18;;;11.10;99.90;;;;;;6062327;23;20034;-91
2022/05/07 06:32:05;;;;;;;10.45;9.50;;;11.10;99.90;;;;;;6017170;23;20027;-91
2022/05/07 06:34:33;;;;;;;9.75;7.68;;;11.10;99.90;;;;;;6065231;23;20030;-91
2022/05/07 06:37:26;;;;;;;15.65;9.30;;;11.10;99.90;;;;;;6016280;23;20031;-90
2022/05/07 06:40:02;;;;;;;10.98;9.88;;;11.10;99.90;;;;;;6028451;23;20608;-91
2022/05/07 06:42:43;;;;;;;9.77;8.77;;;11.10;99.90;;;;;;6043476;23;20026;-91
2022/05/07 06:45:40;;;;;;;11.30;9.63;;;11.20;99.90;;;;;;6042935;23;20026;-91
2022/05/07 06:48:13;;;;;;;9.68;8.20;;;11.20;99.90;;;;;;6017277;23;20465;-91
2022/05/07 06:50:53;;;;;;;10.55;8.40;;;11.20;99.90;;;;;;6020137;23;20446;-87
2022/05/07 06:53:28;;;;;;;9.32;8.40;;;11.30;99.90;;;;;;6028318;23;20031;-87
2022/05/07 06:55:59;;;;;;;10.50;8.48;;;11.20;99.90;;;;;;6041644;23;20018;-87
2022/05/07 06:58:35;;;;;;;10.40;8.55;;;11.20;99.90;;;;;;6064979;23;20029;-86
2022/05/07 07:01:05;;;;;;;9.93;7.03;;;11.10;99.90;;;;;;6040554;23;20031;-87
2022/05/07 07:03:42;;;;;;;8.75;7.90;;;11.30;99.90;;;;;;6042111;23;20018;-88
2022/05/07 07:06:10;;;;;;;12.63;9.25;;;11.30;99.90;;;;;;5980254;23;20375;-88
2022/05/07 07:08:38;;;;;;;8.77;6.93;;;11.30;99.90;;;;;;6020745;23;20022;-88
2022/05/07 07:11:06;;;;;;;10.70;7.72;;;11.40;99.90;;;;;;6020241;23;20026;-88
2022/05/07 07:13:47;;;;;;;8.35;7.60;;;11.40;99.90;;;;;;6041592;23;20034;-87
2022/05/07 07:16:37;;;;;;;9.75;7.95;;;11.40;99.90;;;;;;6090214;23;20572;-87
2022/05/07 07:19:11;;;;;;;8.05;6.68;;;11.50;99.90;;;;;;6064628;23;20029;-87
2022/05/07 07:21:43;;;;;;;13.20;7.15;;;11.50;99.90;;;;;;6090824;23;20026;-87
2022/05/07 07:24:22;;;;;;;12.50;8.00;;;11.50;99.90;;;;;;6042322;23;20041;-87
2022/05/07 07:26:51;;;;;;;10.57;9.43;;;11.50;99.90;;;;;;6064736;23;20033;-86
2022/05/07 07:29:18;;;;;;;8.60;7.70;;;11.50;99.90;;;;;;6064377;23;20708;-88
2022/05/07 07:31:46;;;;;;;8.43;7.38;;;11.50;99.90;;;;;;6064304;23;20030;-88
2022/05/07 07:34:14;;;;;;;7.32;6.40;;;11.60;99.90;;;;;;6074457;23;20010;-89
2022/05/07 07:36:44;;;;;;;8.20;6.05;;;11.50;99.90;;;;;;6018266;23;20027;-88
2022/05/07 07:39:13;;;;;;;10.43;7.65;;;11.50;99.90;;;;;;6074054;23;20014;-88
2022/05/07 07:41:40;;;;;;;7.78;6.80;;;11.60;99.90;;;;;;6039429;23;20026;-86
2022/05/07 07:44:09;;;;;;;6.88;6.03;;;11.70;99.90;;;;;;6063096;23;20025;-87
2022/05/07 07:49:23;;;;;;;7.55;6.72;;;11.70;99.90;;;;;;6040359;23;20026;-88
2022/05/07 07:51:52;;;;;;;8.25;7.03;;;11.60;99.90;;;;;;6017009;23;20015;-89
2022/05/07 07:54:22;;;;;;;10.48;7.43;;;11.60;99.90;;;;;;6024441;23;20034;-90
2022/05/07 07:56:50;;;;;;;7.78;7.00;;;11.60;99.90;;;;;;6052881;23;20019;-87
2022/05/07 07:59:20;;;;;;;10.27;8.57;;;11.60;99.90;;;;;;6078524;23;20354;-88
2022/05/07 08:02:04;;;;;;;8.40;7.57;;;11.60;99.90;;;;;;6040478;23;20026;-88
2022/05/07 08:04:59;;;;;;;11.40;9.40;;;11.50;99.90;;;;;;6071256;23;20049;-88
2022/05/07 08:13:00;;;;;;;13.55;11.10;;;11.50;99.90;;;;;;6072897;23;20018;-87
2022/05/07 08:15:28;;;;;;;10.45;8.07;;;11.40;99.90;;;;;;6070739;23;20015;-88
2022/05/07 08:17:55;;;;;;;9.70;7.93;;;11.40;99.90;;;;;;6095083;23;20029;-88
2022/05/07 08:20:24;;;;;;;6.78;6.10;;;11.50;99.90;;;;;;6086978;23;20034;-88
2022/05/07 08:22:51;;;;;;;10.73;8.02;;;11.50;99.90;;;;;;6083305;23;20022;-89
2022/05/07 08:25:27;;;;;;;7.90;6.35;;;11.60;99.90;;;;;;6101709;23;20034;-89
2022/05/07 08:28:04;;;;;;;;;;;11.60;99.90;;;;;;6068672;23;20018;-86
2022/05/07 08:30:36;;;;;;;8.05;6.13;;;11.60;99.90;;;;;;6037090;23;19922;-88
2022/05/07 08:33:04;;;;;;;7.57;6.80;;;11.60;99.90;;;;;;6063848;23;20053;-86
2022/05/07 08:35:32;;;;;;;6.30;5.28;;;11.70;99.90;;;;;;6035867;23;20019;-85
2022/05/07 08:38:00;;;;;;;6.47;5.22;;;11.70;99.90;;;;;;6057279;23;20027;-86
2022/05/07 08:40:29;;;;;;;7.97;6.65;;;11.70;99.90;;;;;;6006713;23;20027;-84
2022/05/07 08:42:58;;;;;;;7.68;6.18;;;11.60;99.90;;;;;;6042369;23;20538;-86
2022/05/07 08:45:26;;;;;;;7.18;5.38;;;11.60;99.90;;;;;;6032216;23;20043;-87
2022/05/07 08:47:54;;;;;;;6.90;5.88;;;11.60;99.90;;;;;;6063634;23;21013;-86
2022/05/07 08:50:23;;;;;;;8.23;6.43;;;11.60;99.90;;;;;;6044441;23;20031;-89
2022/05/07 08:52:50;;;;;;;5.65;4.95;;;11.70;99.90;;;;;;6040192;23;20351;-87
2022/05/07 08:55:19;;;;;;;6.88;6.18;;;11.70;99.90;;;;;;6048013;23;20019;-88
2022/05/07 08:57:48;;;;;;;9.27;6.75;;;11.70;99.90;;;;;;6060508;23;20024;-88
2022/05/07 09:00:21;;;;;;;12.07;7.97;;;11.80;99.90;;;;;;6045514;23;20102;-87
2022/05/07 09:02:52;;;;;;;8.40;6.70;;;11.80;99.90;;;;;;6047887;23;20443;-89
2022/05/07 09:05:21;;;;;;;10.10;6.72;;;11.80;99.90;;;;;;6042255;23;20026;-88
2022/05/07 09:07:54;;;;;;;17.02;9.90;;;11.80;99.90;;;;;;6044587;23;20743;-86
2022/05/07 09:10:29;;;;;;;12.65;8.95;;;11.80;99.90;;;;;;6012676;23;20031;-88
2022/05/07 09:13:17;;;;;;;12.80;8.80;;;11.90;99.90;;;;;;6032840;23;20447;-88
2022/05/07 09:15:54;;;;;;;11.38;8.68;;;12.00;99.90;;;;;;6044251;23;20344;-89
2022/05/07 09:18:23;;;;;;;12.13;9.77;;;12.00;99.90;;;;;;6034695;23;20019;-88
2022/05/07 09:21:15;;;;;;;11.30;8.90;;;12.00;99.90;;;;;;6063932;23;20030;-89
2022/05/07 09:23:48;;;;;;;8.00;6.32;;;12.00;99.90;;;;;;6045283;23;20022;-89
2022/05/07 09:26:39;;;;;;;14.10;9.80;;;12.00;99.90;;;;;;5987786;23;20023;-86
2022/05/07 09:29:10;;;;;;;12.68;11.18;;;12.10;99.90;;;;;;6064957;23;20350;-87
2022/05/07 09:31:45;;;;;;;10.27;8.95;;;12.10;99.90;;;;;;6048085;23;20023;-89
2022/05/07 09:37:16;;;;;;;13.93;10.43;;;12.20;99.90;;;;;;6037848;23;20348;-88
2022/05/07 09:39:51;;;;;;;13.77;9.25;;;12.30;99.90;;;;;;6043439;23;20022;-88
2022/05/07 09:42:22;;;;;;;12.18;10.68;;;12.50;99.90;;;;;;6066336;23;20019;-88
2022/05/07 09:44:53;;;;;;;12.05;10.50;;;12.70;99.90;;;;;;6035179;23;20031;-89
2022/05/07 09:47:27;;;;;;;23.88;14.45;;;12.80;99.90;;;;;;6012328;23;20015;-88
2022/05/07 09:58:20;;;;;;;15.32;11.55;;;12.80;99.90;;;;;;6019271;23;20459;-87
2022/05/07 10:01:26;;;;;;;13.05;10.85;;;12.80;99.90;;;;;;6008952;23;20031;-87
2022/05/07 10:04:06;;;;;;;11.95;9.57;;;12.80;99.90;;;;;;6007648;23;20031;-85
2022/05/07 10:07:11;;;;;;;12.45;10.73;;;12.80;99.90;;;;;;6042085;23;20034;-86
2022/05/07 10:10:06;;;;;;;15.07;10.60;;;12.90;99.90;;;;;;6033509;23;20039;-85
2022/05/07 10:12:35;;;;;;;14.23;12.20;;;13.00;99.90;;;;;;6008352;23;20062;-87
2022/05/07 10:15:12;;;;;;;14.25;10.63;;;13.00;99.90;;;;;;6009073;23;20027;-89
2022/05/07 10:17:43;;;;;;;10.43;9.18;;;13.00;99.90;;;;;;6036965;23;20438;-85
2022/05/07 10:20:14;;;;;;;11.90;8.98;;;13.10;99.90;;;;;;6011022;23;20023;-87
2022/05/07 10:22:42;;;;;;;14.80;11.68;;;13.20;99.90;;;;;;6011380;23;20026;-87
2022/05/07 10:25:10;;;;;;;11.32;10.18;;;13.30;99.90;;;;;;6009777;23;20023;-85
2022/05/07 10:27:43;;;;;;;12.63;10.82;;;13.20;99.90;;;;;;6011214;23;20026;-85
2022/05/07 10:30:23;;;;;;;11.75;9.93;;;13.10;99.90;;;;;;5984854;23;20019;-80
2022/05/07 10:33:03;;;;;;;12.20;9.88;;;13.00;99.90;;;;;;6011306;23;20019;-81
2022/05/07 10:35:51;;;;;;;12.43;8.65;;;13.00;99.90;;;;;;6043321;23;20016;-83
2022/05/07 10:38:36;;;;;;;12.35;11.10;;;13.00;99.90;;;;;;5993543;23;20791;-83
2022/05/07 10:41:19;;;;;;;9.88;8.82;;;13.00;99.90;;;;;;6007104;23;20023;-82
2022/05/07 10:43:56;;;;;;;13.73;10.07;;;12.90;99.90;;;;;;5983835;23;20023;-85
2022/05/07 10:46:24;;;;;;;10.88;9.52;;;12.90;99.90;;;;;;6018122;23;20019;-84
2022/05/07 10:48:57;;;;;;;12.98;11.40;;;12.80;99.90;;;;;;6007250;23;20031;-84
2022/05/07 10:51:36;;;;;;;9.80;8.88;;;12.70;99.90;;;;;;5960811;23;20035;-84
2022/05/07 10:54:19;;;;;;;13.95;9.52;;;12.70;99.90;;;;;;5960383;23;20455;-83
2022/05/07 10:56:52;;;;;;;10.05;8.93;;;12.60;99.90;;;;;;6012953;23;20019;-83
2022/05/07 10:59:21;;;;;;;14.00;9.10;;;12.60;99.90;;;;;;6007500;23;20024;-84
2022/05/07 11:01:50;;;;;;;12.23;10.90;;;12.70;99.90;;;;;;6007516;23;20031;-84
2022/05/07 11:04:22;;;;;;;10.98;8.60;;;12.80;99.90;;;;;;6040465;23;20494;-84
2022/05/07 11:06:53;;;;;;;10.18;8.13;;;12.80;99.90;;;;;;6017996;23;20078;-84
2022/05/07 11:09:25;;;;;;;12.82;10.30;;;12.90;99.90;;;;;;6011724;23;20023;-84
2022/05/07 11:11:57;;;;;;;11.18;9.90;;;13.00;99.90;;;;;;6042196;23;20023;-84
2022/05/07 11:14:27;;;;;;;11.80;9.80;;;13.10;99.90;;;;;;6044107;23;20466;-83
2022/05/07 11:16:56;;;;;;;10.38;9.38;;;13.20;99.90;;;;;;6036959;23;20375;-83
2022/05/07 11:19:34;;;;;;;11.23;8.82;;;13.30;99.90;;;;;;6042351;23;20035;-84
2022/05/07 11:22:05;;;;;;;10.43;9.48;;;13.30;99.90;;;;;;6031047;23;20027;-83
2022/05/07 11:24:33;;;;;;;12.25;9.77;;;13.30;99.90;;;;;;5984208;23;20023;-83
2022/05/07 11:27:05;;;;;;;10.43;8.93;;;13.40;99.90;;;;;;5984060;23;20515;-82
2022/05/07 11:29:34;;;;;;;10.85;9.10;;;13.60;99.90;;;;;;6000316;23;20034;-82
2022/05/07 11:32:09;;;;;;;12.60;9.27;;;13.90;99.90;;;;;;6008191;23;20023;-83
2022/05/07 11:34:38;;;;;;;8.80;7.78;;;14.20;99.90;;;;;;6030798;23;20570;-82
2022/05/07 11:37:19;;;;;;;11.20;6.72;;;14.10;99.90;;;;;;6006429;23;20720;-82
2022/05/07 11:39:57;;;;;;;8.38;7.30;;;13.90;99.90;;;;;;6038601;23;20019;-82
2022/05/07 11:42:33;;;;;;;7.45;6.65;;;13.80;99.90;;;;;;6054909;23;20019;-81
2022/05/07 11:45:27;;;;;;;11.50;8.10;;;13.60;99.90;;;;;;6034080;23;20042;-82
2022/05/07 11:48:09;;;;;;;7.50;6.80;;;13.50;99.90;;;;;;6040197;23;20019;-82
2022/05/07 11:50:42;;;;;;;9.13;7.60;;;13.30;99.90;;;;;;6043995;23;20023;-85
2022/05/07 11:53:15;;;;;;;11.88;8.38;;;13.20;99.90;;;;;;6034292;23;20019;-85
2022/05/07 11:55:44;;;;;;;8.80;7.75;;;13.20;99.90;;;;;;6013288;23;20042;-84
2022/05/07 11:58:22;;;;;;;12.10;8.52;;;13.30;99.90;;;;;;6059840;23;20020;-84
2022/05/07 12:00:52;;;;;;;9.93;8.90;;;13.50;99.90;;;;;;6010648;23;20034;-82
2022/05/07 12:03:27;;;;;;;7.60;6.90;;;13.80;99.90;;;;;;6035027;23;20027;-85
2022/05/07 12:06:03;;;;;;;12.23;9.68;;;13.90;99.90;;;;;;6010906;23;20575;-82
2022/05/07 12:08:34;;;;;;;7.20;6.45;;;14.00;99.90;;;;;;6036883;23;20035;-78
2022/05/07 12:11:04;;;;;;;7.93;7.13;;;14.10;99.90;;;;;;6041644;23;20038;-84
2022/05/07 12:13:31;;;;;;;8.60;5.10;;;14.10;99.90;;;;;;6007984;23;20335;-84
2022/05/07 12:18:48;;;;;;;6.32;5.68;;;14.10;99.90;;;;;;6036531;23;20744;-83
2022/05/07 12:21:16;;;;;;;6.27;5.60;;;14.10;99.90;;;;;;6008165;23;20027;-82
2022/05/07 12:32:06;;;;;;;7.03;6.20;;;13.90;99.90;;;;;;6037367;23;20023;-81
2022/05/07 12:34:34;;;;;;;4.97;4.55;;;14.00;99.90;;;;;;6041902;23;20015;-80
2022/05/07 12:37:03;;;;;;;9.00;6.05;;;14.10;99.90;;;;;;6005778;23;20027;-80
2022/05/07 12:39:33;;;;;;;6.43;5.07;;;14.10;99.90;;;;;;6006521;23;20024;-81
2022/05/07 12:42:09;;;;;;;7.47;6.38;;;14.20;99.90;;;;;;6053019;23;20478;-81
2022/05/07 12:44:38;;;;;;;6.10;5.50;;;14.20;99.90;;;;;;6037378;23;20035;-81
2022/05/07 12:47:06;;;;;;;6.50;5.90;;;14.00;99.90;;;;;;6040104;23;20019;-80
2022/05/07 12:49:34;;;;;;;5.68;5.07;;;13.80;99.90;;;;;;6029111;23;20055;-80
2022/05/07 12:52:07;;;;;;;10.20;6.65;;;13.70;99.90;;;;;;6038275;23;20031;-81
2022/05/07 12:54:36;;;;;;;8.60;7.32;;;13.70;99.90;;;;;;6053309;23;20023;-81
2022/05/07 12:57:06;;;;;;;11.75;8.10;;;13.70;99.90;;;;;;6056709;23;20027;-80
2022/05/07 12:59:36;;;;;;;8.57;7.05;;;13.50;99.90;;;;;;6041630;23;20725;-82
2022/05/07 13:02:06;;;;;;;8.43;7.57;;;13.40;99.90;;;;;;6032329;23;20031;-83
2022/05/07 13:04:35;;;;;;;10.43;7.97;;;13.20;99.90;;;;;;6038782;23;20035;-81
2022/05/07 13:07:04;;;;;;;9.48;8.55;;;13.10;99.90;;;;;;6041263;23;20251;-80
2022/05/07 13:09:31;;;;;;;9.93;8.20;;;13.00;99.90;;;;;;6033965;23;20031;-83
2022/05/07 13:12:23;;;;;;;8.35;7.15;;;12.90;99.90;;;;;;6040879;23;20027;-85
2022/05/07 13:14:57;;;;;;;9.10;7.28;;;12.80;99.90;;;;;;6042077;23;20015;-85
2022/05/07 13:17:26;;;;;;;;;;;12.70;99.90;;;;;;6036044;23;20490;-81
2022/05/07 13:19:53;;;;;;;9.25;7.90;;;12.70;99.90;;;;;;6062741;23;19937;-85
2022/05/07 13:22:21;;;;;;;9.45;6.95;;;12.70;99.90;;;;;;6006533;23;20030;-84
2022/05/07 13:24:49;;;;;;;9.80;8.85;;;12.80;99.90;;;;;;6006986;23;20031;-84
2022/05/07 13:27:19;;;;;;;7.75;6.95;;;12.80;99.90;;;;;;6039902;23;20019;-82
2022/05/07 13:29:52;;;;;;;7.15;6.03;;;12.80;99.90;;;;;;6058307;23;20046;-84
2022/05/07 13:32:21;;;;;;;8.20;6.20;;;12.80;99.90;;;;;;6035747;23;20045;-83
2022/05/07 13:34:49;;;;;;;6.53;6.00;;;12.80;99.90;;;;;;6068785;23;20015;-84
2022/05/07 13:37:18;;;;;;;5.88;5.38;;;13.00;99.90;;;;;;6061145;23;20023;-84
2022/05/07 13:39:46;;;;;;;5.20;4.72;;;13.00;99.90;;;;;;6044483;23;20022;-84
2022/05/07 13:42:13;;;;;;;6.03;4.47;;;13.10;99.90;;;;;;6013415;23;20015;-84
2022/05/07 13:44:41;;;;;;;5.47;4.70;;;13.00;99.90;;;;;;6011890;23;20031;-82
2022/05/07 13:47:09;;;;;;;6.47;5.82;;;13.00;99.90;;;;;;6045889;23;20015;-84
2022/05/07 13:49:37;;;;;;;6.22;5.63;;;13.00;99.90;;;;;;6036332;23;20038;-85
2022/05/07 13:52:05;;;;;;;7.10;5.93;;;13.00;99.90;;;;;;6011152;23;20019;-85
2022/05/07 13:54:33;;;;;;;5.25;4.75;;;13.00;99.90;;;;;;6036118;23;20596;-85
2022/05/07 13:57:01;;;;;;;5.88;5.05;;;13.00;99.90;;;;;;6011573;23;20031;-84
2022/05/07 13:59:31;;;;;;;5.43;4.93;;;13.00;99.90;;;;;;6071114;23;20023;-85
2022/05/07 14:02:00;;;;;;;6.00;4.97;;;13.10;99.90;;;;;;6035939;23;20026;-87
2022/05/07 14:04:27;;;;;;;6.22;5.72;;;13.00;99.90;;;;;;6066790;23;20034;-82
2022/05/07 14:06:55;;;;;;;6.15;5.55;;;13.00;99.90;;;;;;6071592;23;20018;-85